»·PEaware :: N933VL KSNA-KAVX

N933VL :: KSNA-KAVX

FLIGHT INFORMATION

Flight Status: Arrived
Operator: Privately registered:
United States
More flights under this callsign
Pilot: Greg C. (27677)
Aircraft: CESSNA 172 SKYHAWK
(C172)
More flights by this aircraft type
Origin: KSNA John Wayne-Orange Co
United States
Destination: KAVX Catalina
United States
More flights between these airports :: More routes between these airports
Route: SLI V21 SXC
File this flight plan on PilotEdge
Remarks: I-7 RATING
Altitude:
(Current/Filed)
4,000ft
Speed:
(Current/Filed)
115kts
Departed: 09-Feb-20 09:57 PM
Arrived: 09-Feb-20 10:32 PM
Distance/Time
Traveled:
32nm/0:35
Distance/Time
To Go:
Arrived

Flight Plot

Page will automatically refresh every two minutes.


Map Options




Map Legend


Flown Route
Filed Route
Departure Airport
Arrival Airport
Navaid (VOR, NDB)
Fix

Horizontal Profiles

Position Reports

Time Latitude Longitude Heading Altitude Ground
Speed
09-Feb-20 21:41 33.667170 -117.872135 225 60ft 0kts
09-Feb-20 21:42 33.667170 -117.872135 225 60ft 0kts
09-Feb-20 21:43 33.667170 -117.872135 225 60ft 0kts
09-Feb-20 21:44 33.667170 -117.872135 225 60ft 0kts
09-Feb-20 21:45 33.667170 -117.872135 225 60ft 0kts
09-Feb-20 21:46 33.667170 -117.872135 225 60ft 0kts
09-Feb-20 21:47 33.667170 -117.872135 225 60ft 0kts
09-Feb-20 21:48 33.667170 -117.872135 225 60ft 0kts
09-Feb-20 21:49 33.667170 -117.872135 225 60ft 0kts
09-Feb-20 21:50 33.667170 -117.872135 225 60ft 0kts
09-Feb-20 21:51 33.667170 -117.872135 225 60ft 0kts
09-Feb-20 21:52 33.667170 -117.872135 225 60ft 0kts
09-Feb-20 21:53 33.667151 -117.872160 228 60ft 2kts
09-Feb-20 21:54 33.667545 -117.872876 280 60ft 0kts
09-Feb-20 21:55 33.667545 -117.872876 280 60ft 0kts
09-Feb-20 21:56 33.668861 -117.873141 34 60ft 12kts
09-Feb-20 21:57 33.682827 -117.866419 29 817ft 68kts
09-Feb-20 21:57 33.692787 -117.880994 253 1738ft 94kts
09-Feb-20 21:59 33.680270 -117.921879 229 2287ft 93kts
09-Feb-20 21:59 33.668626 -117.943230 228 2780ft 92kts
09-Feb-20 22:00 33.654180 -117.968663 224 3927ft 94kts
09-Feb-20 22:02 33.629187 -118.010404 228 3999ft 141kts
09-Feb-20 22:02 33.610428 -118.041862 226 3998ft 136kts
09-Feb-20 22:04 33.584091 -118.084171 228 3991ft 134kts
09-Feb-20 22:04 33.565547 -118.114055 233 3998ft 133kts
09-Feb-20 22:06 33.542126 -118.151968 230 4012ft 102kts
09-Feb-20 22:06 33.528542 -118.173694 228 4015ft 97kts
09-Feb-20 22:07 33.507622 -118.207219 230 4018ft 144kts
09-Feb-20 22:08 33.483468 -118.246308 228 4014ft 143kts
09-Feb-20 22:09 33.459471 -118.284811 227 4009ft 142kts
09-Feb-20 22:10 33.437026 -118.320934 227 4008ft 124kts
09-Feb-20 22:11 33.417947 -118.351504 224 4010ft 108kts
09-Feb-20 22:12 33.399487 -118.380828 226 4010ft 111kts
09-Feb-20 22:13 33.380816 -118.410684 225 4012ft 112kts
09-Feb-20 22:14 33.376482 -118.444011 334 4007ft 112kts
09-Feb-20 22:15 33.401641 -118.438819 51 4010ft 89kts
09-Feb-20 22:16 33.421648 -118.417905 28 4008ft 109kts
09-Feb-20 22:17 33.450601 -118.411256 19 4006ft 104kts
09-Feb-20 22:18 33.477011 -118.406539 18 4011ft 99kts
09-Feb-20 22:19 33.504408 -118.402444 4 4008ft 107kts
09-Feb-20 22:20 33.528976 -118.431983 313 3409ft 115kts
09-Feb-20 22:21 33.549226 -118.461278 332 3406ft 110kts
09-Feb-20 22:22 33.558131 -118.450924 133 3417ft 70kts
09-Feb-20 22:23 33.537476 -118.434801 139 3122ft 100kts
09-Feb-20 22:24 33.514030 -118.415606 133 2452ft 100kts
09-Feb-20 22:25 33.490143 -118.407398 173 2304ft 87kts
09-Feb-20 22:26 33.466869 -118.408978 171 2319ft 82kts
09-Feb-20 22:27 33.443528 -118.411323 170 2306ft 82kts
09-Feb-20 22:28 33.421192 -118.420655 226 2225ft 98kts
09-Feb-20 22:29 33.407341 -118.440681 118 2189ft 54kts
09-Feb-20 22:30 33.399882 -118.432568 91 1989ft 46kts
09-Feb-20 22:31 33.403822 -118.417664 49 1556ft 7kts
09-Feb-20 22:32 33.403755 -118.415741 323 1549ft 0kts
09-Feb-20 22:33 33.403754 -118.415740 323 1549ft 0kts
09-Feb-20 22:34 33.403754 -118.415740 323 1549ft 0kts
09-Feb-20 22:35 33.403754 -118.415740 323 1549ft 0kts
09-Feb-20 22:36 33.403754 -118.415740 323 1549ft 0kts

Navigation Log

Ident Type
Flight plan parsing failed, navigation log unavailable